Terminal Aerodrome Forecast
Issued by NWS

Home | Current Version | Previous Version | Text Only | Print | Product List | Glossary On
Versions: 1 2 3 4 5 6 7 8 9 10 11 12 13
760
FTUS43 KSGF 281416 AAA
TAFJLN
TAF AMD
KJLN 281416Z 2814/2912 30010KT P6SM SKC
     FM281600 35010G20KT P6SM SKC
     FM290000 01006KT P6SM SKC=

USA.gov is the U.S. government's official web portal to all federal, state and local government web resources and services.